Time;durP1;ratioP1;P1;durP2;ratioP2;P2;SDS_P1;SDS_P2;PMS_P1;PMS_P2;Temp;Humidity;BMP_temperature;BMP_pressure;BME280_temperature;BME280_humidity;BME280_pressure;Samples;Min_cycle;Max_cycle;Signal;HPM_P1;HPM_P2
2022/04/06 00:00:47;;;;;;;28.00;10.80;;;8.40;99.90;;;;;;5029257;28;20805;-75
2022/04/06 00:03:13;;;;;;;29.30;11.52;;;8.40;99.90;;;;;;5027061;28;20064;-75
2022/04/06 00:05:39;;;;;;;21.20;10.30;;;8.40;99.90;;;;;;5023594;28;20485;-75
2022/04/06 00:08:05;;;;;;;33.22;11.52;;;8.40;99.90;;;;;;5030178;28;20048;-75
2022/04/06 00:10:31;;;;;;;28.95;12.13;;;8.40;99.90;;;;;;5028066;28;20045;-75
2022/04/06 00:12:58;;;;;;;32.30;12.93;;;8.40;99.90;;;;;;5029874;28;21032;-75
2022/04/06 00:15:23;;;;;;;32.50;12.35;;;8.40;99.90;;;;;;5033634;28;20056;-75
2022/04/06 00:17:49;;;;;;;28.63;12.13;;;8.40;99.90;;;;;;5032967;28;20499;-75
2022/04/06 00:20:15;;;;;;;37.03;13.05;;;8.50;99.90;;;;;;5031034;28;20072;-75
2022/04/06 00:22:41;;;;;;;36.63;14.63;;;8.40;99.90;;;;;;5034656;28;20072;-75
2022/04/06 00:25:07;;;;;;;34.65;12.25;;;8.40;99.90;;;;;;5028054;28;20049;-75
2022/04/06 00:27:33;;;;;;;31.70;13.65;;;8.40;99.90;;;;;;5036209;28;20049;-75
2022/04/06 00:29:59;;;;;;;34.03;13.25;;;8.40;99.90;;;;;;5035635;28;20073;-75
2022/04/06 00:32:25;;;;;;;28.45;12.30;;;8.40;99.90;;;;;;5032397;28;20053;-75
2022/04/06 00:37:35;;;;;;;32.53;12.50;;;8.50;99.90;;;;;;5032027;28;20087;-75
2022/04/06 00:40:02;;;;;;;27.73;12.48;;;8.50;99.90;;;;;;5035278;28;20044;-75
2022/04/06 00:42:27;;;;;;;33.28;13.00;;;8.50;99.90;;;;;;5032429;28;20153;-75
2022/04/06 00:44:53;;;;;;;34.03;11.95;;;8.50;99.90;;;;;;5035654;28;20044;-75
2022/04/06 00:47:18;;;;;;;34.97;13.05;;;8.50;99.90;;;;;;5037593;28;20495;-75
2022/04/06 00:49:44;;;;;;;30.90;11.77;;;8.50;99.90;;;;;;5031138;28;20400;-75
2022/04/06 00:52:10;;;;;;;36.72;13.05;;;8.50;99.90;;;;;;5036683;28;20048;-75
2022/04/06 00:54:37;;;;;;;26.83;12.52;;;8.50;99.90;;;;;;5026360;28;20053;-76
2022/04/06 00:57:03;;;;;;;32.38;13.05;;;8.50;99.90;;;;;;5030925;28;20163;-75
2022/04/06 00:59:30;;;;;;;30.05;12.57;;;8.50;99.90;;;;;;5033742;28;20040;-75
2022/04/06 01:01:56;;;;;;;32.88;12.43;;;8.50;99.90;;;;;;5027962;28;20048;-75
2022/04/06 01:04:22;;;;;;;30.88;13.18;;;8.50;99.90;;;;;;5031067;28;20041;-75
2022/04/06 01:06:49;;;;;;;37.30;12.05;;;8.50;99.90;;;;;;5035244;28;20091;-76
2022/04/06 01:09:20;;;;;;;27.25;12.07;;;8.50;99.90;;;;;;5028157;28;20821;-76
2022/04/06 01:11:50;;;;;;;29.83;11.38;;;8.50;99.90;;;;;;5026680;28;20167;-75
2022/04/06 01:14:17;;;;;;;35.10;12.02;;;8.50;99.90;;;;;;5023414;28;20501;-75
2022/04/06 01:16:56;;;;;;;32.35;10.93;;;8.50;99.90;;;;;;5034056;28;20048;-75
2022/04/06 01:19:22;;;;;;;28.17;10.68;;;8.50;99.90;;;;;;5035566;28;20049;-75
2022/04/06 01:21:48;;;;;;;25.70;10.23;;;8.50;99.90;;;;;;5033673;28;20056;-76
2022/04/06 01:24:13;;;;;;;28.58;10.20;;;8.60;99.90;;;;;;5032574;28;20049;-75
2022/04/06 01:26:39;;;;;;;24.58;9.48;;;8.60;99.90;;;;;;5031618;28;20049;-75
2022/04/06 01:29:04;;;;;;;23.42;9.63;;;8.60;99.90;;;;;;5032338;28;20830;-75
2022/04/06 01:31:30;;;;;;;25.95;9.55;;;8.60;99.90;;;;;;5030609;28;20085;-76
2022/04/06 01:33:55;;;;;;;26.95;8.73;;;8.60;99.90;;;;;;5033920;28;20041;-75
2022/04/06 01:36:21;;;;;;;22.48;8.45;;;8.60;99.90;;;;;;5030776;28;20044;-75
2022/04/06 01:38:47;;;;;;;28.08;10.00;;;8.60;99.90;;;;;;5036236;28;20377;-75
2022/04/06 01:41:12;;;;;;;20.73;9.07;;;8.60;99.90;;;;;;5029533;28;20098;-76
2022/04/06 01:43:38;;;;;;;26.40;9.07;;;8.60;99.90;;;;;;5035730;28;20049;-75
2022/04/06 01:46:03;;;;;;;24.88;8.57;;;8.60;99.90;;;;;;5028264;28;20045;-76
2022/04/06 01:48:29;;;;;;;21.77;8.73;;;8.60;99.90;;;;;;5025918;28;20045;-75
2022/04/06 01:53:38;;;;;;;20.10;8.83;;;8.60;99.90;;;;;;5027673;28;20064;-75
2022/04/06 01:56:04;;;;;;;23.80;7.90;;;8.70;99.90;;;;;;5028724;28;20311;-75
2022/04/06 01:58:30;;;;;;;24.02;7.60;;;8.60;99.90;;;;;;5035387;28;20599;-75
2022/04/06 02:00:55;;;;;;;23.00;8.20;;;8.70;99.90;;;;;;5034094;28;20137;-75
2022/04/06 02:03:21;;;;;;;22.90;8.43;;;8.70;99.90;;;;;;5035654;28;20041;-75
2022/04/06 02:05:46;;;;;;;20.58;7.97;;;8.70;99.90;;;;;;5031254;28;20045;-75
2022/04/06 02:08:13;;;;;;;24.33;7.95;;;8.70;99.90;;;;;;5033368;28;20045;-75
2022/04/06 02:10:39;;;;;;;17.42;7.75;;;8.70;99.90;;;;;;5025555;28;20053;-75
2022/04/06 02:13:05;;;;;;;18.20;8.52;;;8.70;99.90;;;;;;5030855;28;20141;-75
2022/04/06 02:15:31;;;;;;;16.88;8.05;;;8.70;99.90;;;;;;5025203;28;20500;-75
2022/04/06 02:17:56;;;;;;;19.15;7.43;;;8.70;99.90;;;;;;5028994;28;20096;-75
2022/04/06 02:20:22;;;;;;;20.98;8.90;;;8.70;99.90;;;;;;5031462;28;20126;-75
2022/04/06 02:22:48;;;;;;;24.50;7.60;;;8.70;99.90;;;;;;5031784;28;20554;-75
2022/04/06 02:25:14;;;;;;;18.98;6.97;;;8.70;99.90;;;;;;5029152;28;20041;-75
2022/04/06 02:27:51;;;;;;;15.90;6.70;;;8.80;99.90;;;;;;5020656;28;20064;-75
2022/04/06 02:30:18;;;;;;;17.98;6.47;;;8.80;99.90;;;;;;5038788;28;20045;-75
2022/04/06 02:32:44;;;;;;;18.15;6.68;;;8.80;99.90;;;;;;5023561;28;20057;-75
2022/04/06 02:35:10;;;;;;;20.60;7.15;;;8.80;99.90;;;;;;5034840;28;20049;-75
2022/04/06 02:37:35;;;;;;;13.82;5.50;;;8.70;99.90;;;;;;5034298;28;20057;-75
2022/04/06 02:40:01;;;;;;;15.02;5.68;;;8.70;99.90;;;;;;5033558;28;20842;-75
2022/04/06 02:42:27;;;;;;;15.50;5.43;;;8.70;99.90;;;;;;5020466;28;20054;-74
2022/04/06 02:44:53;;;;;;;17.73;5.22;;;8.70;99.90;;;;;;5033480;28;20087;-75
2022/04/06 02:47:18;;;;;;;17.08;5.20;;;8.70;99.90;;;;;;5025089;28;20052;-75
2022/04/06 02:49:44;;;;;;;13.70;4.82;;;8.70;99.90;;;;;;5028487;28;20041;-74
2022/04/06 02:52:10;;;;;;;13.98;4.85;;;8.70;99.90;;;;;;5032329;28;20057;-75
2022/04/06 02:54:35;;;;;;;12.93;4.40;;;8.70;99.90;;;;;;5031392;28;20049;-75
2022/04/06 02:57:01;;;;;;;16.75;5.18;;;8.70;99.90;;;;;;5031168;28;20057;-74
2022/04/06 02:59:27;;;;;;;13.73;4.20;;;8.70;99.90;;;;;;5032758;28;20047;-75
2022/04/06 03:01:52;;;;;;;13.95;4.18;;;8.70;99.90;;;;;;5024852;28;20052;-75
2022/04/06 03:04:18;;;;;;;15.80;4.50;;;8.70;99.90;;;;;;5029974;28;20056;-74
2022/04/06 03:06:43;;;;;;;11.27;4.30;;;8.70;99.90;;;;;;5031492;28;20873;-75
2022/04/06 03:09:09;;;;;;;15.55;4.80;;;8.70;99.90;;;;;;5033632;28;20048;-75
2022/04/06 03:11:35;;;;;;;11.48;4.15;;;8.70;99.90;;;;;;5031579;28;20761;-75
2022/04/06 03:14:01;;;;;;;14.18;4.28;;;8.70;99.90;;;;;;5032682;28;20413;-75
2022/04/06 03:16:27;;;;;;;14.05;4.47;;;8.60;99.90;;;;;;5029428;28;20045;-75
2022/04/06 03:18:52;;;;;;;14.82;4.43;;;8.60;99.90;;;;;;5032545;28;20048;-75
2022/04/06 03:21:18;;;;;;;11.65;3.83;;;8.70;99.90;;;;;;5027679;28;20095;-75
2022/04/06 03:23:44;;;;;;;14.52;4.07;;;8.70;99.90;;;;;;5033530;28;20048;-74
2022/04/06 03:26:10;;;;;;;13.48;4.13;;;8.70;99.90;;;;;;5026215;28;20580;-75
2022/04/06 03:28:38;;;;;;;15.07;4.03;;;8.70;99.90;;;;;;5032041;28;20041;-75
2022/04/06 03:31:04;;;;;;;16.45;4.20;;;8.70;99.90;;;;;;5024871;28;20053;-75
2022/04/06 03:33:29;;;;;;;8.45;3.10;;;8.70;99.90;;;;;;5032803;28;20735;-75
2022/04/06 03:35:55;;;;;;;14.98;4.35;;;8.70;99.90;;;;;;5036257;28;20040;-75
2022/04/06 03:38:21;;;;;;;15.88;4.05;;;8.60;99.90;;;;;;5038384;28;20048;-75
2022/04/06 03:40:46;;;;;;;13.55;5.10;;;8.70;99.90;;;;;;5035549;28;20048;-74
2022/04/06 03:43:12;;;;;;;17.73;5.53;;;8.60;99.90;;;;;;5026253;28;20049;-73
2022/04/06 03:45:38;;;;;;;15.10;5.57;;;8.60;99.90;;;;;;5033014;28;20060;-75
2022/04/06 03:48:04;;;;;;;17.85;6.32;;;8.70;99.90;;;;;;5028969;28;20037;-74
2022/04/06 03:50:29;;;;;;;14.38;5.88;;;8.70;99.90;;;;;;5030392;28;20045;-74
2022/04/06 03:52:55;;;;;;;20.45;5.88;;;8.70;99.90;;;;;;5037560;28;20053;-75
2022/04/06 03:55:22;;;;;;;16.08;7.28;;;8.90;99.90;;;;;;5029724;28;20053;-74
2022/04/06 03:57:48;;;;;;;21.15;7.35;;;8.70;99.90;;;;;;5034300;28;20693;-74
2022/04/06 04:00:14;;;;;;;24.65;7.13;;;8.60;99.90;;;;;;5035395;28;20053;-74
2022/04/06 04:02:40;;;;;;;21.75;7.28;;;8.70;99.90;;;;;;5033822;28;20087;-75
2022/04/06 04:05:06;;;;;;;25.48;8.40;;;8.60;99.90;;;;;;5030511;28;20131;-75
2022/04/06 04:07:37;;;;;;;20.17;7.95;;;8.60;99.90;;;;;;5031537;28;20056;-75
2022/04/06 04:10:04;;;;;;;20.05;8.25;;;8.70;99.90;;;;;;5034619;28;20049;-74
2022/04/06 04:12:30;;;;;;;19.23;7.93;;;8.70;99.90;;;;;;5031110;28;20670;-75
2022/04/06 04:14:55;;;;;;;24.40;7.55;;;8.70;99.90;;;;;;5038328;28;20043;-74
2022/04/06 04:17:21;;;;;;;23.48;8.30;;;8.70;99.90;;;;;;5036823;28;20103;-75
2022/04/06 04:19:47;;;;;;;19.27;8.25;;;8.70;99.90;;;;;;5037021;28;20464;-75
2022/04/06 04:22:12;;;;;;;24.17;8.63;;;8.70;99.90;;;;;;5030066;28;20052;-75
2022/04/06 04:24:38;;;;;;;21.33;8.85;;;8.80;99.90;;;;;;5030905;28;20819;-75
2022/04/06 04:27:04;;;;;;;22.67;9.35;;;8.70;99.90;;;;;;5028623;28;20123;-75
2022/04/06 04:29:29;;;;;;;28.83;9.30;;;8.60;99.90;;;;;;5027040;28;20468;-75
2022/04/06 04:31:55;;;;;;;26.08;10.15;;;8.70;99.90;;;;;;5034796;28;20820;-75
2022/04/06 04:34:20;;;;;;;25.48;8.98;;;8.70;99.90;;;;;;5034859;28;20049;-75
2022/04/06 04:36:46;;;;;;;30.55;9.55;;;8.70;99.90;;;;;;5037910;28;20131;-75
2022/04/06 04:39:11;;;;;;;28.13;10.07;;;8.70;99.90;;;;;;5028112;28;20041;-75
2022/04/06 04:41:37;;;;;;;27.30;8.85;;;8.70;99.90;;;;;;5025497;28;20091;-74
2022/04/06 04:44:03;;;;;;;28.95;8.70;;;8.70;99.90;;;;;;5029245;28;20041;-74
2022/04/06 04:46:29;;;;;;;26.23;9.38;;;8.70;99.90;;;;;;5035783;28;20068;-75
2022/04/06 04:48:54;;;;;;;20.35;8.48;;;8.70;99.90;;;;;;5031951;28;20041;-74
2022/04/06 04:51:20;;;;;;;18.67;9.13;;;8.70;99.90;;;;;;5030963;28;20130;-75
2022/04/06 04:53:46;;;;;;;24.30;8.05;;;8.60;99.90;;;;;;5030036;28;20061;-74
2022/04/06 04:56:11;;;;;;;23.20;8.10;;;8.60;99.90;;;;;;5032802;28;20059;-74
2022/04/06 04:58:37;;;;;;;18.73;7.97;;;8.60;99.90;;;;;;5037071;28;20045;-74
2022/04/06 05:01:03;;;;;;;22.85;6.80;;;8.60;99.90;;;;;;5035657;28;20060;-75
2022/04/06 05:03:29;;;;;;;22.10;8.07;;;8.60;99.90;;;;;;5028130;28;20073;-75
2022/04/06 05:05:56;;;;;;;20.40;7.25;;;8.50;99.90;;;;;;5032822;28;20053;-75
2022/04/06 05:08:22;;;;;;;25.98;6.95;;;8.50;99.90;;;;;;5027851;28;20187;-75
2022/04/06 05:10:48;;;;;;;27.50;6.97;;;8.50;99.90;;;;;;5037094;28;20048;-75
2022/04/06 05:13:14;;;;;;;16.15;6.20;;;8.50;99.90;;;;;;5034786;28;20077;-75
2022/04/06 05:15:40;;;;;;;22.20;6.65;;;8.40;99.90;;;;;;5028751;28;20045;-75
2022/04/06 05:18:06;;;;;;;16.25;6.00;;;8.40;99.90;;;;;;5032844;28;20060;-75
2022/04/06 05:20:32;;;;;;;20.27;6.38;;;8.40;99.90;;;;;;5035466;28;20063;-75
2022/04/06 05:22:57;;;;;;;20.02;6.05;;;8.40;99.90;;;;;;5034647;28;20048;-75
2022/04/06 05:25:23;;;;;;;20.75;5.75;;;8.40;99.90;;;;;;5022164;28;20134;-75
2022/04/06 05:27:54;;;;;;;20.27;6.25;;;8.40;99.90;;;;;;5024856;28;20867;-75
2022/04/06 05:30:25;;;;;;;18.88;5.85;;;8.40;99.90;;;;;;5021662;28;20595;-75
2022/04/06 05:32:53;;;;;;;18.23;4.68;;;8.40;99.90;;;;;;5022047;28;20042;-75
2022/04/06 05:35:19;;;;;;;19.55;5.85;;;8.40;99.90;;;;;;5030150;28;20065;-75
2022/04/06 05:37:45;;;;;;;15.90;5.20;;;8.40;99.90;;;;;;5032112;28;20092;-75
2022/04/06 05:40:13;;;;;;;17.08;5.28;;;8.40;99.90;;;;;;5034404;28;20103;-75
2022/04/06 05:42:39;;;;;;;16.95;5.10;;;8.40;99.90;;;;;;5031161;28;20040;-75
2022/04/06 05:45:06;;;;;;;17.75;5.10;;;8.40;99.90;;;;;;5028016;28;20769;-75
2022/04/06 05:47:33;;;;;;;16.92;4.60;;;8.40;99.90;;;;;;5035499;28;20516;-75
2022/04/06 05:50:00;;;;;;;17.15;5.25;;;8.40;99.90;;;;;;5032627;28;20070;-75
2022/04/06 05:52:25;;;;;;;17.55;4.13;;;8.40;99.90;;;;;;5036361;28;20053;-75
2022/04/06 05:54:51;;;;;;;20.55;4.55;;;8.40;99.90;;;;;;5031851;28;20053;-74
2022/04/06 05:57:18;;;;;;;13.30;3.40;;;8.40;99.90;;;;;;5033524;28;20183;-74
2022/04/06 05:59:44;;;;;;;18.27;4.10;;;8.50;99.90;;;;;;5036410;28;20137;-75
2022/04/06 06:02:11;;;;;;;13.20;4.25;;;8.50;99.90;;;;;;5027655;28;20065;-75
2022/04/06 06:04:38;;;;;;;15.45;4.00;;;8.50;99.90;;;;;;5028433;28;20060;-75
2022/04/06 06:07:07;;;;;;;10.73;3.00;;;8.50;99.90;;;;;;5030097;28;20072;-75
2022/04/06 06:09:34;;;;;;;13.70;4.05;;;8.50;99.90;;;;;;5033657;28;20061;-75
2022/04/06 06:12:01;;;;;;;12.90;3.90;;;8.50;99.90;;;;;;5030651;28;20897;-75
2022/04/06 06:14:27;;;;;;;17.88;3.90;;;8.50;99.90;;;;;;5026071;28;20072;-75
2022/04/06 06:16:53;;;;;;;10.85;3.33;;;8.50;99.90;;;;;;5032159;28;20051;-75
2022/04/06 06:19:19;;;;;;;13.38;4.03;;;8.50;99.90;;;;;;5028292;28;20034;-75
2022/04/06 06:21:44;;;;;;;14.90;4.00;;;8.40;99.90;;;;;;5028876;28;20572;-75
2022/04/06 06:24:10;;;;;;;15.63;4.35;;;8.40;99.90;;;;;;5028991;28;20053;-75
2022/04/06 06:26:37;;;;;;;11.77;4.20;;;8.40;99.90;;;;;;5029303;28;20847;-75
2022/04/06 06:29:04;;;;;;;9.13;3.60;;;8.40;99.90;;;;;;5026420;28;20046;-75
2022/04/06 06:31:30;;;;;;;12.07;4.07;;;8.40;99.90;;;;;;5025078;28;20130;-75
2022/04/06 06:33:57;;;;;;;10.73;3.95;;;8.40;99.90;;;;;;5022420;28;20794;-75
2022/04/06 06:36:23;;;;;;;17.83;4.03;;;8.30;99.90;;;;;;5024452;28;20053;-75
2022/04/06 06:38:51;;;;;;;10.73;3.25;;;8.30;99.90;;;;;;5031162;28;20127;-75
2022/04/06 06:41:17;;;;;;;10.55;3.45;;;8.30;99.90;;;;;;5025740;28;20486;-75
2022/04/06 06:43:44;;;;;;;16.08;3.30;;;8.30;99.90;;;;;;5030790;28;20053;-75
2022/04/06 06:46:10;;;;;;;13.88;3.30;;;8.30;99.90;;;;;;5024733;28;20052;-75
2022/04/06 06:48:37;;;;;;;11.70;3.13;;;8.60;99.90;;;;;;5032674;28;20036;-74
2022/04/06 06:51:03;;;;;;;17.42;3.45;;;8.30;99.90;;;;;;5026229;28;20123;-74
2022/04/06 06:53:28;;;;;;;13.48;3.72;;;8.30;99.90;;;;;;5026187;28;20049;-75
2022/04/06 06:55:54;;;;;;;13.25;2.78;;;8.30;99.90;;;;;;5030168;28;20225;-74
2022/04/06 06:58:19;;;;;;;10.57;3.22;;;8.30;99.90;;;;;;5027346;28;20102;-74
2022/04/06 07:00:45;;;;;;;9.75;3.20;;;8.40;99.90;;;;;;5032754;28;20099;-74
2022/04/06 07:03:11;;;;;;;9.18;2.42;;;8.40;99.90;;;;;;5028373;28;20442;-74
2022/04/06 07:05:36;;;;;;;9.48;2.50;;;8.40;99.90;;;;;;5034910;28;20586;-74
2022/04/06 07:08:02;;;;;;;9.40;2.40;;;8.40;99.90;;;;;;5032310;28;20049;-74
2022/04/06 07:10:29;;;;;;;12.23;2.67;;;8.40;99.90;;;;;;5032695;28;20849;-74
2022/04/06 07:12:56;;;;;;;12.82;2.70;;;8.40;99.90;;;;;;5030105;28;20068;-73
2022/04/06 07:15:23;;;;;;;13.75;2.90;;;8.40;99.90;;;;;;5024394;28;20151;-74
2022/04/06 07:17:53;;;;;;;10.57;3.08;;;8.40;99.90;;;;;;5033951;28;20049;-74
2022/04/06 07:20:19;;;;;;;9.82;3.15;;;8.30;99.90;;;;;;5026282;28;20095;-73
2022/04/06 07:22:45;;;;;;;9.63;3.30;;;8.30;99.90;;;;;;5028873;28;20518;-74
2022/04/06 07:25:10;;;;;;;7.70;2.88;;;8.30;99.90;;;;;;5025043;28;20041;-73
2022/04/06 07:27:37;;;;;;;12.48;3.40;;;8.30;99.90;;;;;;5023982;28;20519;-73
2022/04/06 07:30:07;;;;;;;13.32;3.78;;;8.40;99.90;;;;;;5036053;28;20049;-73
2022/04/06 07:32:34;;;;;;;10.25;2.97;;;8.40;99.90;;;;;;5027237;28;20049;-73
2022/04/06 07:35:00;;;;;;;11.18;3.15;;;8.40;99.90;;;;;;5035466;28;20098;-74
2022/04/06 07:37:25;;;;;;;9.98;3.50;;;8.40;99.90;;;;;;5033024;28;20053;-74
2022/04/06 07:39:51;;;;;;;14.05;3.28;;;8.40;99.90;;;;;;5038376;28;20041;-74
2022/04/06 07:42:17;;;;;;;12.30;3.28;;;8.40;99.90;;;;;;5026408;28;20128;-73
2022/04/06 07:44:42;;;;;;;10.43;3.60;;;8.40;99.90;;;;;;5026154;28;20106;-74
2022/04/06 07:47:08;;;;;;;12.48;3.63;;;8.40;99.90;;;;;;5026867;28;20111;-74
2022/04/06 07:49:33;;;;;;;18.23;3.90;;;8.40;99.90;;;;;;5031505;28;20063;-74
2022/04/06 07:51:59;;;;;;;15.82;4.50;;;8.40;99.90;;;;;;5037029;28;20048;-75
2022/04/06 07:54:24;;;;;;;12.65;3.38;;;8.40;99.90;;;;;;5026880;28;20139;-74
2022/04/06 07:56:50;;;;;;;15.38;4.90;;;8.40;99.90;;;;;;5027668;28;20412;-75
2022/04/06 07:59:15;;;;;;;16.40;3.95;;;8.40;99.90;;;;;;5033963;28;20087;-75
2022/04/06 08:01:41;;;;;;;20.05;5.15;;;8.40;99.90;;;;;;5035225;28;20128;-75
2022/04/06 08:04:06;;;;;;;14.80;4.30;;;8.40;99.90;;;;;;5026195;28;20115;-76
2022/04/06 08:06:32;;;;;;;15.68;4.20;;;8.40;99.90;;;;;;5031073;28;20123;-76
2022/04/06 08:08:59;;;;;;;15.25;3.60;;;8.40;99.90;;;;;;5025955;28;20227;-76
2022/04/06 08:11:24;;;;;;;14.73;4.72;;;8.40;99.90;;;;;;5028665;28;20824;-76
2022/04/06 08:13:50;;;;;;;15.38;3.53;;;8.40;99.90;;;;;;5033736;28;20048;-75
2022/04/06 08:16:16;;;;;;;13.75;3.92;;;8.40;99.90;;;;;;5026165;28;20081;-76
2022/04/06 08:18:42;;;;;;;17.77;4.30;;;8.40;99.90;;;;;;5035707;28;20102;-75
2022/04/06 08:21:09;;;;;;;14.55;4.55;;;8.50;99.90;;;;;;5037253;28;20045;-75
2022/04/06 08:23:35;;;;;;;12.15;3.83;;;8.50;99.90;;;;;;5040452;28;20060;-76
2022/04/06 08:26:00;;;;;;;14.75;4.00;;;8.50;99.90;;;;;;5038836;28;20057;-76
2022/04/06 08:28:26;;;;;;;15.02;4.43;;;8.50;99.90;;;;;;5028905;28;20052;-76
2022/04/06 08:30:52;;;;;;;14.80;4.03;;;8.60;99.90;;;;;;5032032;28;20300;-77
2022/04/06 08:33:17;;;;;;;14.30;4.00;;;8.60;99.90;;;;;;5027036;28;20089;-78
2022/04/06 08:35:43;;;;;;;13.70;4.65;;;8.50;99.90;;;;;;5031800;28;20123;-76
2022/04/06 08:38:14;;;;;;;13.50;3.92;;;8.60;99.90;;;;;;5029683;28;20777;-77
2022/04/06 08:40:42;;;;;;;16.77;4.03;;;8.60;99.90;;;;;;5027536;28;20053;-77
2022/04/06 08:43:09;;;;;;;11.20;4.25;;;8.60;99.90;;;;;;5031437;28;20052;-77
2022/04/06 08:45:37;;;;;;;13.32;4.20;;;8.60;99.90;;;;;;5023105;28;20778;-77
2022/04/06 08:48:06;;;;;;;16.58;3.83;;;8.60;99.90;;;;;;5027942;28;20092;-76
2022/04/06 08:50:34;;;;;;;11.52;3.95;;;8.60;99.90;;;;;;5035672;28;20611;-77
2022/04/06 08:53:00;;;;;;;9.85;3.47;;;8.60;99.90;;;;;;5036467;28;20110;-77
2022/04/06 08:55:25;;;;;;;13.05;4.10;;;8.60;99.90;;;;;;5039875;28;20786;-77
2022/04/06 08:57:51;;;;;;;13.07;3.65;;;8.60;99.90;;;;;;5031478;28;20053;-77
2022/04/06 09:00:18;;;;;;;14.35;4.00;;;8.60;99.90;;;;;;5038190;28;20048;-77
2022/04/06 09:02:44;;;;;;;13.57;2.88;;;8.70;99.90;;;;;;5021410;28;20049;-77
2022/04/06 09:05:11;;;;;;;9.82;3.42;;;8.70;99.90;;;;;;5032159;28;20045;-80
2022/04/06 09:07:38;;;;;;;14.38;3.85;;;8.70;99.90;;;;;;5035739;28;20134;-79
2022/04/06 09:10:04;;;;;;;11.55;3.33;;;8.80;99.90;;;;;;5038429;28;20048;-77
2022/04/06 09:12:30;;;;;;;9.00;3.42;;;8.80;99.90;;;;;;5040735;28;20053;-77
2022/04/06 09:15:10;;;;;;;12.18;3.40;;;8.80;99.90;;;;;;5034957;28;20503;-76
2022/04/06 09:17:47;;;;;;;15.57;3.63;;;8.90;99.90;;;;;;5031475;28;20083;-76
2022/04/06 09:20:14;;;;;;;13.55;3.38;;;9.00;99.90;;;;;;5031919;28;20057;-76
2022/04/06 09:22:41;;;;;;;14.93;3.70;;;9.10;99.90;;;;;;5026535;28;20080;-76
2022/04/06 09:25:09;;;;;;;14.18;3.92;;;9.10;99.90;;;;;;5034264;28;20044;-76
2022/04/06 09:27:35;;;;;;;11.23;3.25;;;9.20;99.90;;;;;;5032686;28;20060;-77
2022/04/06 09:30:04;;;;;;;11.95;3.28;;;9.30;99.90;;;;;;5029220;28;20519;-77
2022/04/06 09:32:30;;;;;;;12.55;3.28;;;9.40;99.90;;;;;;5027647;28;20227;-76
2022/04/06 09:34:56;;;;;;;12.55;3.35;;;9.40;99.90;;;;;;5029190;28;20037;-76
2022/04/06 09:37:29;;;;;;;12.38;3.80;;;9.40;99.90;;;;;;5029375;28;20049;-77
2022/04/06 09:39:58;;;;;;;10.25;3.13;;;9.40;99.90;;;;;;5029072;28;20080;-76
2022/04/06 09:42:26;;;;;;;12.65;3.13;;;9.40;99.90;;;;;;5028446;28;20051;-76
2022/04/06 09:47:58;;;;;;;9.77;3.38;;;9.50;99.90;;;;;;5030336;28;20489;-76
2022/04/06 09:50:27;;;;;;;10.23;2.80;;;9.60;99.90;;;;;;5035433;28;20834;-75
2022/04/06 09:52:56;;;;;;;11.25;2.80;;;9.60;99.90;;;;;;5039076;28;20432;-75
2022/04/06 09:55:22;;;;;;;10.95;3.33;;;9.60;99.90;;;;;;5032807;28;20053;-76
2022/04/06 09:57:51;;;;;;;10.95;3.38;;;9.70;99.90;;;;;;5031234;28;20049;-75
2022/04/06 10:00:22;;;;;;;12.00;3.03;;;9.70;99.90;;;;;;5026557;28;20051;-76
2022/04/06 10:02:59;;;;;;;11.02;3.22;;;9.80;99.90;;;;;;5028558;28;20057;-76
2022/04/06 10:05:27;;;;;;;14.75;3.58;;;9.80;99.90;;;;;;5031349;28;20055;-75
2022/04/06 10:07:53;;;;;;;14.05;3.95;;;9.80;99.90;;;;;;5034737;28;21023;-75
2022/04/06 10:10:23;;;;;;;14.55;3.65;;;9.90;99.90;;;;;;5024073;28;20508;-75
2022/04/06 10:12:49;;;;;;;13.32;3.45;;;9.80;99.90;;;;;;5029478;28;20053;-76
2022/04/06 10:15:15;;;;;;;14.10;4.68;;;9.80;99.90;;;;;;5035846;28;20045;-76
2022/04/06 10:17:40;;;;;;;12.20;3.30;;;9.80;99.90;;;;;;5032761;28;20794;-75
2022/04/06 10:20:15;;;;;;;13.77;3.63;;;9.80;99.90;;;;;;5033618;28;20041;-75
2022/04/06 10:22:51;;;;;;;12.25;3.97;;;9.80;99.90;;;;;;5029789;28;20135;-76
2022/04/06 10:25:47;;;;;;;15.95;4.28;;;9.70;99.90;;;;;;5028418;28;20045;-76
2022/04/06 10:28:14;;;;;;;11.95;4.40;;;9.80;99.90;;;;;;5023305;28;20049;-77
2022/04/06 10:30:40;;;;;;;18.52;4.07;;;9.80;99.90;;;;;;5031726;28;20099;-73
2022/04/06 10:33:20;;;;;;;13.70;4.88;;;9.70;99.90;;;;;;5034405;28;20045;-73
2022/04/06 10:35:45;;;;;;;14.45;4.95;;;9.70;99.90;;;;;;5021190;28;20049;-73
2022/04/06 10:38:12;;;;;;;16.27;4.18;;;9.70;99.90;;;;;;5033435;28;20041;-73
2022/04/06 10:40:47;;;;;;;14.82;5.20;;;9.70;99.90;;;;;;5031468;28;20649;-84
2022/04/06 10:43:39;;;;;;;14.48;4.25;;;9.70;99.90;;;;;;5029220;28;20518;-89
2022/04/06 10:46:19;;;;;;;20.00;5.47;;;9.70;99.90;;;;;;5044744;28;20059;-93
2022/04/06 10:49:09;;;;;;;11.30;4.85;;;9.70;99.90;;;;;;5047462;28;20140;-93
2022/04/06 10:51:56;;;;;;;13.75;5.65;;;9.70;99.90;;;;;;5035642;28;20092;-92
2022/04/06 10:54:23;;;;;;;16.75;5.82;;;9.70;99.90;;;;;;5038783;28;20075;-93
2022/04/06 10:56:53;;;;;;;15.55;5.88;;;9.70;99.90;;;;;;5032724;28;20135;-93
2022/04/06 10:59:23;;;;;;;17.38;5.85;;;9.70;99.90;;;;;;5045309;28;20041;-92
2022/04/06 11:02:09;;;;;;;17.58;5.88;;;9.70;99.90;;;;;;5039686;28;20064;-91
2022/04/06 11:04:39;;;;;;;16.10;7.05;;;9.90;99.90;;;;;;5054839;28;20130;-91
2022/04/06 11:07:05;;;;;;;20.50;6.75;;;9.60;99.90;;;;;;5051907;28;20048;-93
2022/04/06 11:12:21;;;;;;;16.95;6.43;;;9.60;99.90;;;;;;5044829;28;20563;-92
2022/04/06 11:15:00;;;;;;;24.30;6.40;;;9.60;99.90;;;;;;5047319;28;20054;-92
2022/04/06 11:17:32;;;;;;;17.13;6.20;;;9.60;99.90;;;;;;5040614;28;20408;-92
2022/04/06 11:20:20;;;;;;;20.20;7.45;;;9.60;99.90;;;;;;5050150;28;20052;-94
2022/04/06 11:22:57;;;;;;;24.30;7.20;;;9.70;99.90;;;;;;5047013;28;20103;-89
2022/04/06 11:25:28;;;;;;;12.90;5.78;;;10.20;99.90;;;;;;5043984;28;20049;-90
2022/04/06 11:28:04;;;;;;;17.23;5.85;;;9.70;99.90;;;;;;5040280;28;20072;-93
2022/04/06 11:30:32;;;;;;;18.65;7.35;;;9.70;99.90;;;;;;5041623;28;20045;-93
2022/04/06 11:33:03;;;;;;;14.27;6.53;;;9.70;99.90;;;;;;5031956;28;20052;-92
2022/04/06 11:35:31;;;;;;;15.95;6.80;;;10.20;99.90;;;;;;5038663;28;20079;-94
2022/04/06 11:37:58;;;;;;;11.35;5.53;;;9.80;99.90;;;;;;5054246;28;20103;-92
2022/04/06 11:40:28;;;;;;;17.13;6.05;;;10.50;99.90;;;;;;5045335;28;20047;-95
2022/04/06 11:42:56;;;;;;;15.65;7.07;;;10.40;99.90;;;;;;5046034;28;20040;-94
2022/04/06 11:45:30;;;;;;;15.40;5.70;;;10.20;99.90;;;;;;5046186;28;20079;-93
2022/04/06 11:47:59;;;;;;;17.80;6.15;;;10.20;99.90;;;;;;5047683;28;20041;-95
2022/04/06 11:50:33;;;;;;;17.55;6.38;;;10.20;99.90;;;;;;5050507;28;20052;-94
2022/04/06 11:53:04;;;;;;;11.40;6.28;;;10.80;99.90;;;;;;5044083;28;20124;-93
2022/04/06 11:55:49;;;;;;;18.50;6.63;;;10.50;99.90;;;;;;5040869;28;20065;-94
2022/04/06 11:58:34;;;;;;;13.70;5.63;;;10.60;99.90;;;;;;5052595;28;20056;-94
2022/04/06 12:01:02;;;;;;;12.13;5.38;;;10.70;99.90;;;;;;5051277;28;20565;-93
2022/04/06 12:03:29;;;;;;;16.75;6.30;;;10.70;99.90;;;;;;5040064;28;20145;-93
2022/04/06 12:05:54;;;;;;;11.52;5.28;;;10.60;99.90;;;;;;5051318;28;20115;-91
2022/04/06 12:08:20;;;;;;;14.60;6.28;;;10.60;99.90;;;;;;5048930;28;20052;-92
2022/04/06 12:10:50;;;;;;;16.77;5.80;;;10.60;99.90;;;;;;5054791;28;20065;-92
2022/04/06 12:13:17;;;;;;;14.77;5.70;;;10.50;99.90;;;;;;5040124;28;20706;-93
2022/04/06 12:15:44;;;;;;;16.73;6.10;;;10.80;99.90;;;;;;5052864;28;20368;-92
2022/04/06 12:18:10;;;;;;;13.40;5.38;;;10.50;99.90;;;;;;5045775;28;20052;-93
2022/04/06 12:20:35;;;;;;;10.95;4.07;;;10.70;99.90;;;;;;5038690;28;20045;-88
2022/04/06 12:23:09;;;;;;;13.57;3.95;;;10.90;99.90;;;;;;5047149;28;20064;-91
2022/04/06 12:25:36;;;;;;;;;;;11.00;99.90;;;;;;5033663;28;20049;-92
2022/04/06 12:28:17;;;;;;;13.80;5.25;;;11.10;99.90;;;;;;5040632;28;20371;-93
2022/04/06 12:30:52;;;;;;;14.75;5.43;;;11.10;99.90;;;;;;5039225;28;20057;-92
2022/04/06 12:33:41;;;;;;;14.27;5.53;;;11.10;99.90;;;;;;5030732;28;20049;-91
2022/04/06 12:36:13;;;;;;;14.20;4.95;;;11.10;99.90;;;;;;5044416;28;20041;-92
2022/04/06 12:38:41;;;;;;;12.40;5.15;;;11.10;99.90;;;;;;5046397;28;20064;-92
2022/04/06 12:41:12;;;;;;;14.27;4.90;;;11.20;99.90;;;;;;5045394;28;20049;-89
2022/04/06 12:43:45;;;;;;;10.20;4.50;;;11.20;99.90;;;;;;5044665;28;20071;-93
2022/04/06 12:46:12;;;;;;;15.60;4.85;;;11.40;99.90;;;;;;5038441;28;20038;-92
2022/04/06 12:48:38;;;;;;;17.45;4.40;;;11.50;99.90;;;;;;5037247;28;20765;-90
2022/04/06 12:51:25;;;;;;;11.55;4.00;;;11.60;99.90;;;;;;5031104;28;20037;-91
2022/04/06 12:53:52;;;;;;;13.45;4.28;;;11.80;99.90;;;;;;5037683;28;20075;-92
2022/04/06 12:56:23;;;;;;;13.93;4.80;;;11.80;99.90;;;;;;5036685;28;20048;-89
2022/04/06 12:59:09;;;;;;;13.85;4.40;;;11.80;99.90;;;;;;5034259;28;20111;-89